Time,TemperatureF,DewpointF,PressureIn,WindDirection,WindDirectionDegrees,WindSpeedMPH,WindSpeedGustMPH,Humidity,HourlyPrecipIn,Conditions,Clouds,dailyrainin,SoftwareType,DateUTC
2013-03-06 00:00:00,33.7,27.8,29.74,ESE,113,0.7,0.7,79,0.00,,,0.00,WUHU216HW,2013-03-06 05:00:00,
2013-03-06 00:05:00,33.7,27.8,29.74,ESE,113,0.7,0.7,79,0.00,,,0.00,WUHU216HW,2013-03-06 05:05:00,
2013-03-06 00:30:00,33.3,27.8,29.72,ESE,113,0.9,0.9,80,0.00,,,0.00,WUHU216HW,2013-03-06 05:30:00,
2013-03-06 00:35:00,33.3,27.8,29.72,ESE,113,0.9,0.9,80,0.00,,,0.00,WUHU216HW,2013-03-06 05:35:00,
2013-03-06 01:00:00,33.1,27.6,29.71,ESE,113,0.0,0.0,80,0.00,,,0.00,WUHU216HW,2013-03-06 06:00:00,
2013-03-06 01:05:00,33.1,27.6,29.71,ESE,113,0.0,0.0,80,0.00,,,0.00,WUHU216HW,2013-03-06 06:05:00,
2013-03-06 01:30:00,33.1,27.6,29.69,North,0,0.0,0.0,80,0.00,,,0.00,WUHU216HW,2013-03-06 06:30:00,
2013-03-06 01:35:00,33.1,27.6,29.69,North,0,0.0,0.0,80,0.00,,,0.00,WUHU216HW,2013-03-06 06:35:00,
2013-03-06 02:00:00,32.6,28.0,29.66,North,0,0.0,0.0,83,0.00,,,0.00,WUHU216HW,2013-03-06 07:00:00,
2013-03-06 02:05:00,32.6,28.0,29.66,North,0,0.0,0.0,83,0.00,,,0.00,WUHU216HW,2013-03-06 07:05:00,
2013-03-06 02:30:00,32.8,28.2,29.66,ESE,113,0.0,0.0,83,0.00,,,0.00,WUHU216HW,2013-03-06 07:30:00,
2013-03-06 02:35:00,32.8,28.2,29.66,ESE,113,0.0,0.0,83,0.00,,,0.00,WUHU216HW,2013-03-06 07:35:00,
2013-03-06 03:00:00,32.8,28.4,29.66,ESE,113,0.0,0.0,84,0.00,,,0.00,WUHU216HW,2013-03-06 08:00:00,
2013-03-06 03:05:00,32.8,28.4,29.66,ESE,113,0.0,0.0,84,0.00,,,0.00,WUHU216HW,2013-03-06 08:05:00,
2013-03-06 03:30:00,32.6,28.0,29.64,ESE,113,0.0,0.0,83,0.00,,,0.00,WUHU216HW,2013-03-06 08:30:00,
2013-03-06 03:35:00,32.6,28.0,29.64,ESE,113,0.0,0.0,83,0.00,,,0.00,WUHU216HW,2013-03-06 08:35:00,
2013-03-06 04:00:00,32.4,28.5,29.63,ESE,113,0.0,0.0,85,0.00,,,0.00,WUHU216HW,2013-03-06 09:00:00,
2013-03-06 04:05:00,32.4,28.5,29.63,ESE,113,0.0,0.0,85,0.00,,,0.00,WUHU216HW,2013-03-06 09:05:00,
2013-03-06 04:30:00,32.4,28.7,29.63,ESE,113,0.0,0.0,86,0.00,,,0.00,WUHU216HW,2013-03-06 09:30:00,
2013-03-06 04:35:00,32.4,28.7,29.63,ESE,113,0.0,0.0,86,0.00,,,0.00,WUHU216HW,2013-03-06 09:35:00,
2013-03-06 05:00:00,32.2,29.1,29.64,ESE,113,0.0,0.0,88,0.00,,,0.00,WUHU216HW,2013-03-06 10:00:00,
2013-03-06 05:05:00,32.2,29.1,29.64,ESE,113,0.0,0.0,88,0.00,,,0.00,WUHU216HW,2013-03-06 10:05:00,
2013-03-06 05:30:00,32.2,29.1,29.64,ESE,113,0.0,0.0,88,0.00,,,0.00,WUHU216HW,2013-03-06 10:30:00,
2013-03-06 05:35:00,32.2,29.1,29.64,ESE,113,0.0,0.0,88,0.00,,,0.00,WUHU216HW,2013-03-06 10:35:00,
2013-03-06 06:00:00,32.2,29.4,29.64,ESE,113,0.0,0.0,89,0.00,,,0.00,WUHU216HW,2013-03-06 11:00:00,
2013-03-06 06:05:00,32.2,29.4,29.64,ESE,113,0.0,0.0,89,0.00,,,0.00,WUHU216HW,2013-03-06 11:05:00,
2013-03-06 06:30:00,32.2,29.7,29.64,ESE,113,0.0,0.0,90,0.00,,,0.00,WUHU216HW,2013-03-06 11:30:00,
2013-03-06 06:35:00,32.2,29.7,29.64,ESE,113,0.0,0.0,90,0.00,,,0.00,WUHU216HW,2013-03-06 11:35:00,
2013-03-06 07:00:00,32.2,29.7,29.63,ESE,113,0.0,0.0,90,0.00,,,0.00,WUHU216HW,2013-03-06 12:00:00,
2013-03-06 07:05:00,32.2,29.7,29.63,ESE,113,0.0,0.0,90,0.00,,,0.00,WUHU216HW,2013-03-06 12:05:00,
2013-03-06 07:30:00,32.4,29.9,29.64,ESE,113,0.0,0.0,90,0.00,,,0.00,WUHU216HW,2013-03-06 12:30:00,
2013-03-06 07:35:00,32.4,29.9,29.64,ESE,113,0.0,0.0,90,0.00,,,0.00,WUHU216HW,2013-03-06 12:35:00,
2013-03-06 08:00:00,32.8,30.2,29.66,ESE,113,0.0,0.0,90,0.00,,,0.00,WUHU216HW,2013-03-06 13:00:00,
2013-03-06 08:05:00,32.8,30.2,29.66,ESE,113,0.0,0.0,90,0.00,,,0.00,WUHU216HW,2013-03-06 13:05:00,
2013-03-06 08:30:00,32.8,30.2,29.66,ESE,113,0.0,0.0,90,0.00,,,0.00,WUHU216HW,2013-03-06 13:30:00,
2013-03-06 08:35:00,32.8,30.2,29.66,ESE,113,0.0,0.0,90,0.00,,,0.00,WUHU216HW,2013-03-06 13:35:00,
2013-03-06 09:00:00,32.8,30.2,29.66,ESE,113,0.0,0.0,90,0.00,,,0.00,WUHU216HW,2013-03-06 14:00:00,
2013-03-06 09:05:00,32.8,30.2,29.66,ESE,113,0.0,0.0,90,0.00,,,0.00,WUHU216HW,2013-03-06 14:05:00,
2013-03-06 09:30:00,33.7,30.7,29.67,ESE,113,0.0,0.0,89,0.00,,,0.00,WUHU216HW,2013-03-06 14:30:00,
2013-03-06 09:35:00,33.7,30.7,29.67,ESE,113,0.0,0.0,89,0.00,,,0.00,WUHU216HW,2013-03-06 14:35:00,
2013-03-06 10:00:00,34.4,30.8,29.68,North,0,7.8,7.8,87,0.00,,,0.00,WUHU216HW,2013-03-06 15:00:00,
2013-03-06 10:05:00,34.4,30.8,29.68,North,0,7.8,7.8,87,0.00,,,0.00,WUHU216HW,2013-03-06 15:05:00,
2013-03-06 10:10:00,34.4,30.8,29.68,North,0,7.8,7.8,87,0.00,,,0.00,WUHU216HW,2013-03-06 15:10:00,
2013-03-06 10:30:00,34.6,30.7,29.69,NNE,23,9.2,9.2,86,0.00,,,0.00,WUHU216HW,2013-03-06 15:30:00,
2013-03-06 10:35:00,34.6,30.7,29.69,NNE,23,9.2,9.2,86,0.00,,,0.00,WUHU216HW,2013-03-06 15:35:00,
2013-03-06 11:00:00,34.6,31.0,29.70,NE,45,17.4,17.4,87,0.00,,,0.00,WUHU216HW,2013-03-06 16:00:00,
2013-03-06 11:05:00,34.6,31.0,29.70,NE,45,17.4,17.4,87,0.00,,,0.00,WUHU216HW,2013-03-06 16:05:00,
2013-03-06 11:30:00,34.4,30.8,29.71,North,0,8.3,8.3,87,0.00,,,0.00,WUHU216HW,2013-03-06 16:30:00,
2013-03-06 11:35:00,34.4,30.8,29.71,North,0,8.3,8.3,87,0.00,,,0.00,WUHU216HW,2013-03-06 16:35:00,
2013-03-06 12:00:00,34.6,31.0,29.73,East,90,10.7,10.7,87,0.01,,,0.00,WUHU216HW,2013-03-06 17:00:00,
2013-03-06 12:05:00,34.4,30.8,29.73,East,90,10.7,10.7,87,0.01,,,0.01,WUHU216HW,2013-03-06 17:05:00,
2013-03-06 12:10:00,34.4,30.8,29.73,East,90,10.7,10.7,87,0.01,,,0.01,WUHU216HW,2013-03-06 17:10:00,
2013-03-06 12:30:00,34.9,31.1,29.74,NNE,23,21.3,21.3,86,0.03,,,0.01,WUHU216HW,2013-03-06 17:30:00,
2013-03-06 12:35:00,34.9,31.1,29.74,NNE,23,21.3,21.3,86,0.03,,,0.01,WUHU216HW,2013-03-06 17:35:00,
2013-03-06 13:00:00,35.1,31.2,29.75,NNE,23,15.7,15.7,86,0.04,,,0.03,WUHU216HW,2013-03-06 18:00:00,
2013-03-06 13:05:00,35.1,31.2,29.75,North,0,13.9,15.7,86,0.04,,,0.05,WUHU216HW,2013-03-06 18:05:00,
2013-03-06 13:30:00,35.6,31.5,29.77,NW,315,16.8,16.8,85,0.08,,,0.05,WUHU216HW,2013-03-06 18:30:00,
2013-03-06 13:35:00,35.6,31.5,29.77,NW,315,16.8,16.8,85,0.08,,,0.05,WUHU216HW,2013-03-06 18:35:00,
2013-03-06 14:00:00,36.2,32.3,29.78,NNE,23,8.7,8.7,86,0.10,,,0.11,WUHU216HW,2013-03-06 19:00:00,
2013-03-06 14:05:00,36.2,32.3,29.78,North,0,8.3,8.7,86,0.09,,,0.15,WUHU216HW,2013-03-06 19:05:00,
2013-03-06 14:10:00,36.2,32.3,29.78,North,0,8.3,8.3,86,0.09,,,0.15,WUHU216HW,2013-03-06 19:10:00,
2013-03-06 14:30:00,36.9,32.5,29.80,North,0,6.3,6.3,84,0.09,,,0.15,WUHU216HW,2013-03-06 19:30:00,
2013-03-06 14:35:00,36.9,32.5,29.80,North,0,6.3,6.3,84,0.09,,,0.15,WUHU216HW,2013-03-06 19:35:00,
2013-03-06 15:00:00,38.2,32.6,29.82,North,0,6.5,6.5,80,0.09,,,0.20,WUHU216HW,2013-03-06 20:00:00,
2013-03-06 15:05:00,38.2,32.2,29.82,North,0,6.5,6.5,79,0.08,,,0.24,WUHU216HW,2013-03-06 20:05:00,
2013-03-06 15:10:00,38.2,32.2,29.82,North,0,6.5,6.5,79,0.08,,,0.24,WUHU216HW,2013-03-06 20:10:00,
2013-03-06 15:30:00,38.5,32.6,29.84,North,0,6.3,6.3,79,0.08,,,0.24,WUHU216HW,2013-03-06 20:30:00,
2013-03-06 15:35:00,38.5,32.6,29.84,North,0,6.3,6.3,79,0.08,,,0.24,WUHU216HW,2013-03-06 20:35:00,
2013-03-06 16:00:00,38.2,32.2,29.86,NNE,23,6.3,6.3,79,0.07,,,0.28,WUHU216HW,2013-03-06 21:00:00,
2013-03-06 16:05:00,38.2,32.2,29.86,North,0,5.8,6.3,79,0.07,,,0.32,WUHU216HW,2013-03-06 21:05:00,
2013-03-06 16:10:00,38.2,32.2,29.86,North,0,5.8,5.8,79,0.07,,,0.32,WUHU216HW,2013-03-06 21:10:00,
2013-03-06 16:30:00,38.2,32.0,29.87,North,0,3.4,3.4,78,0.05,,,0.32,WUHU216HW,2013-03-06 21:30:00,
2013-03-06 16:35:00,38.2,32.0,29.87,North,0,3.4,3.4,78,0.05,,,0.32,WUHU216HW,2013-03-06 21:35:00,
2013-03-06 17:00:00,38.9,32.0,29.89,North,0,9.2,9.2,76,0.04,,,0.34,WUHU216HW,2013-03-06 22:00:00,
2013-03-06 17:05:00,38.9,32.0,29.89,North,0,6.3,9.2,76,0.04,,,0.35,WUHU216HW,2013-03-06 22:05:00,
2013-03-06 17:10:00,38.9,32.0,29.89,North,0,6.3,9.2,76,0.04,,,0.35,WUHU216HW,2013-03-06 22:10:00,
2013-03-06 17:30:00,38.7,31.2,29.90,NNW,338,5.6,5.6,74,0.03,,,0.35,WUHU216HW,2013-03-06 22:30:00,
2013-03-06 17:35:00,38.7,31.2,29.90,NNW,338,5.6,5.6,74,0.03,,,0.35,WUHU216HW,2013-03-06 22:35:00,
2013-03-06 18:00:00,38.7,30.8,29.91,North,0,6.7,6.7,73,0.02,,,0.37,WUHU216HW,2013-03-06 23:00:00,
2013-03-06 18:05:00,38.7,30.8,29.91,North,0,6.7,6.7,73,0.02,,,0.37,WUHU216HW,2013-03-06 23:05:00,
2013-03-06 18:30:00,38.5,30.0,29.92,NNE,23,4.0,4.0,71,0.01,,,0.37,WUHU216HW,2013-03-06 23:30:00,
2013-03-06 18:35:00,38.5,30.0,29.92,NNE,23,4.0,4.0,71,0.01,,,0.37,WUHU216HW,2013-03-06 23:35:00,
2013-03-06 19:00:00,38.9,29.2,29.94,NNW,338,3.6,3.6,68,0.00,,,0.00,WUHU216HW,2013-03-07 00:00:00,
2013-03-06 19:05:00,38.9,29.2,29.94,NNW,338,3.6,3.6,68,0.00,,,0.00,WUHU216HW,2013-03-07 00:05:00,
2013-03-06 19:30:00,38.9,29.2,29.95,NNE,23,5.8,5.8,68,0.01,,,0.00,WUHU216HW,2013-03-07 00:30:00,
2013-03-06 19:35:00,38.9,29.2,29.95,NNE,23,5.8,5.8,68,0.01,,,0.00,WUHU216HW,2013-03-07 00:35:00,
2013-03-06 20:00:00,38.7,28.6,29.95,NNW,338,4.7,4.7,67,0.01,,,0.02,WUHU216HW,2013-03-07 01:00:00,
2013-03-06 20:05:00,38.7,28.6,29.95,NNW,338,4.7,4.7,67,0.01,,,0.02,WUHU216HW,2013-03-07 01:05:00,
2013-03-06 20:30:00,38.5,28.4,29.95,North,0,4.9,4.9,67,0.00,,,0.02,WUHU216HW,2013-03-07 01:30:00,
2013-03-06 20:35:00,38.5,28.4,29.95,North,0,4.9,4.9,67,0.00,,,0.02,WUHU216HW,2013-03-07 01:35:00,
2013-03-06 21:00:00,38.5,28.1,29.96,NNW,338,5.6,5.6,66,0.00,,,0.02,WUHU216HW,2013-03-07 02:00:00,
2013-03-06 21:05:00,38.5,28.1,29.96,NNW,338,5.6,5.6,66,0.00,,,0.02,WUHU216HW,2013-03-07 02:05:00,
2013-03-06 21:30:00,38.5,28.1,29.97,NNE,23,4.3,4.3,66,0.00,,,0.02,WUHU216HW,2013-03-07 02:30:00,
2013-03-06 21:35:00,38.5,28.1,29.97,NNE,23,4.3,4.3,66,0.00,,,0.02,WUHU216HW,2013-03-07 02:35:00,
2013-03-06 22:00:00,38.5,27.4,29.98,NNE,23,8.3,8.3,64,0.00,,,0.02,WUHU216HW,2013-03-07 03:00:00,
2013-03-06 22:05:00,38.5,27.4,29.98,NNE,23,8.3,8.3,64,0.00,,,0.02,WUHU216HW,2013-03-07 03:05:00,
2013-03-06 22:30:00,39.1,27.5,29.98,NNE,23,6.9,6.9,63,0.00,,,0.02,WUHU216HW,2013-03-07 03:30:00,
2013-03-06 22:35:00,39.1,27.5,29.98,NNE,23,6.9,6.9,63,0.00,,,0.02,WUHU216HW,2013-03-07 03:35:00,
2013-03-06 23:00:00,38.9,27.6,29.99,NNW,338,3.1,3.1,64,0.00,,,0.02,WUHU216HW,2013-03-07 04:00:00,
2013-03-06 23:05:00,38.9,27.6,29.99,NNW,338,3.1,3.1,64,0.00,,,0.02,WUHU216HW,2013-03-07 04:05:00,
2013-03-06 23:30:00,38.5,27.7,29.99,North,0,2.2,2.2,65,0.00,,,0.02,WUHU216HW,2013-03-07 04:30:00,
2013-03-06 23:35:00,38.5,27.7,29.99,North,0,2.2,2.2,65,0.00,,,0.02,WUHU216HW,2013-03-07 04:35:00,